sensor_id;sensor_type;location;lat;lon;timestamp;P1;durP1;ratioP1;P2;durP2;ratioP2
60344;SDS011;46188;52.324;8.032;2023-07-20T00:00:00;2.72;;;1.90;;
60344;SDS011;46188;52.324;8.032;2023-07-20T00:02:25;3.15;;;2.13;;
60344;SDS011;46188;52.324;8.032;2023-07-20T00:04:50;2.20;;;1.80;;
60344;SDS011;46188;52.324;8.032;2023-07-20T00:07:16;2.47;;;1.63;;
60344;SDS011;46188;52.324;8.032;2023-07-20T00:09:41;2.95;;;1.55;;
60344;SDS011;46188;52.324;8.032;2023-07-20T00:12:06;4.00;;;1.42;;
60344;SDS011;46188;52.324;8.032;2023-07-20T00:14:32;2.17;;;1.48;;
60344;SDS011;46188;52.324;8.032;2023-07-20T00:16:57;5.18;;;1.80;;
60344;SDS011;46188;52.324;8.032;2023-07-20T00:19:23;3.05;;;1.55;;
60344;SDS011;46188;52.324;8.032;2023-07-20T00:21:50;5.05;;;2.90;;
60344;SDS011;46188;52.324;8.032;2023-07-20T00:24:15;2.08;;;1.60;;
60344;SDS011;46188;52.324;8.032;2023-07-20T00:26:40;2.25;;;1.90;;
60344;SDS011;46188;52.324;8.032;2023-07-20T00:29:05;2.28;;;1.50;;
60344;SDS011;46188;52.324;8.032;2023-07-20T00:31:31;2.58;;;1.90;;
60344;SDS011;46188;52.324;8.032;2023-07-20T00:33:56;2.10;;;1.75;;
60344;SDS011;46188;52.324;8.032;2023-07-20T00:36:21;3.10;;;1.60;;
60344;SDS011;46188;52.324;8.032;2023-07-20T00:38:47;2.92;;;1.80;;
60344;SDS011;46188;52.324;8.032;2023-07-20T00:41:12;2.10;;;1.73;;
60344;SDS011;46188;52.324;8.032;2023-07-20T00:43:38;2.50;;;1.90;;
60344;SDS011;46188;52.324;8.032;2023-07-20T00:46:03;3.88;;;2.17;;
60344;SDS011;46188;52.324;8.032;2023-07-20T00:48:29;4.63;;;2.45;;
60344;SDS011;46188;52.324;8.032;2023-07-20T00:50:55;3.20;;;2.10;;
60344;SDS011;46188;52.324;8.032;2023-07-20T00:53:22;3.15;;;2.33;;
60344;SDS011;46188;52.324;8.032;2023-07-20T00:55:48;2.97;;;1.95;;
60344;SDS011;46188;52.324;8.032;2023-07-20T00:58:13;2.75;;;2.10;;
60344;SDS011;46188;52.324;8.032;2023-07-20T01:00:39;3.55;;;1.92;;
60344;SDS011;46188;52.324;8.032;2023-07-20T01:03:04;2.40;;;1.90;;
60344;SDS011;46188;52.324;8.032;2023-07-20T01:05:36;5.07;;;2.20;;
60344;SDS011;46188;52.324;8.032;2023-07-20T01:08:12;3.30;;;2.38;;
60344;SDS011;46188;52.324;8.032;2023-07-20T01:10:57;2.30;;;2.10;;
60344;SDS011;46188;52.324;8.032;2023-07-20T01:13:28;4.38;;;2.35;;
60344;SDS011;46188;52.324;8.032;2023-07-20T01:15:57;5.05;;;2.20;;
60344;SDS011;46188;52.324;8.032;2023-07-20T01:18:25;5.60;;;2.45;;
60344;SDS011;46188;52.324;8.032;2023-07-20T01:20:51;4.15;;;2.42;;
60344;SDS011;46188;52.324;8.032;2023-07-20T01:26:02;2.15;;;1.83;;
60344;SDS011;46188;52.324;8.032;2023-07-20T01:28:57;3.70;;;1.92;;
60344;SDS011;46188;52.324;8.032;2023-07-20T01:31:36;3.75;;;1.75;;
60344;SDS011;46188;52.324;8.032;2023-07-20T01:34:03;3.75;;;1.88;;
60344;SDS011;46188;52.324;8.032;2023-07-20T01:36:33;3.60;;;2.45;;
60344;SDS011;46188;52.324;8.032;2023-07-20T01:39:00;4.00;;;2.25;;
60344;SDS011;46188;52.324;8.032;2023-07-20T01:41:25;3.05;;;2.75;;
60344;SDS011;46188;52.324;8.032;2023-07-20T01:43:50;3.17;;;2.38;;
60344;SDS011;46188;52.324;8.032;2023-07-20T01:46:16;3.47;;;2.60;;
60344;SDS011;46188;52.324;8.032;2023-07-20T01:48:41;4.60;;;3.90;;
60344;SDS011;46188;52.324;8.032;2023-07-20T01:51:06;4.68;;;4.00;;
60344;SDS011;46188;52.324;8.032;2023-07-20T01:53:32;5.13;;;4.30;;
60344;SDS011;46188;52.324;8.032;2023-07-20T01:55:57;7.13;;;4.10;;
60344;SDS011;46188;52.324;8.032;2023-07-20T01:58:22;8.77;;;4.95;;
60344;SDS011;46188;52.324;8.032;2023-07-20T02:00:48;5.13;;;4.63;;
60344;SDS011;46188;52.324;8.032;2023-07-20T02:03:13;6.68;;;4.25;;
60344;SDS011;46188;52.324;8.032;2023-07-20T02:05:39;4.90;;;4.00;;
60344;SDS011;46188;52.324;8.032;2023-07-20T02:08:04;6.40;;;4.72;;
60344;SDS011;46188;52.324;8.032;2023-07-20T02:10:29;5.50;;;4.20;;
60344;SDS011;46188;52.324;8.032;2023-07-20T02:12:55;4.70;;;4.30;;
60344;SDS011;46188;52.324;8.032;2023-07-20T02:15:20;5.97;;;4.20;;
60344;SDS011;46188;52.324;8.032;2023-07-20T02:17:46;4.82;;;3.97;;
60344;SDS011;46188;52.324;8.032;2023-07-20T02:20:11;5.55;;;4.00;;
60344;SDS011;46188;52.324;8.032;2023-07-20T02:22:37;5.05;;;4.18;;
60344;SDS011;46188;52.324;8.032;2023-07-20T02:25:04;4.32;;;3.53;;
60344;SDS011;46188;52.324;8.032;2023-07-20T02:27:30;5.78;;;3.78;;
60344;SDS011;46188;52.324;8.032;2023-07-20T02:29:55;9.25;;;4.00;;
60344;SDS011;46188;52.324;8.032;2023-07-20T02:32:21;5.68;;;3.92;;
60344;SDS011;46188;52.324;8.032;2023-07-20T02:34:46;6.43;;;3.30;;
60344;SDS011;46188;52.324;8.032;2023-07-20T02:37:12;5.55;;;3.88;;
60344;SDS011;46188;52.324;8.032;2023-07-20T02:39:38;4.50;;;3.85;;
60344;SDS011;46188;52.324;8.032;2023-07-20T02:42:04;6.65;;;4.45;;
60344;SDS011;46188;52.324;8.032;2023-07-20T02:44:29;6.07;;;5.03;;
60344;SDS011;46188;52.324;8.032;2023-07-20T02:46:55;6.03;;;5.15;;
60344;SDS011;46188;52.324;8.032;2023-07-20T02:49:20;7.55;;;5.22;;
60344;SDS011;46188;52.324;8.032;2023-07-20T02:51:45;7.30;;;6.15;;
60344;SDS011;46188;52.324;8.032;2023-07-20T02:54:11;6.90;;;5.95;;
60344;SDS011;46188;52.324;8.032;2023-07-20T02:56:36;6.28;;;5.68;;
60344;SDS011;46188;52.324;8.032;2023-07-20T02:59:01;6.53;;;5.80;;
60344;SDS011;46188;52.324;8.032;2023-07-20T03:01:27;5.40;;;4.88;;
60344;SDS011;46188;52.324;8.032;2023-07-20T03:03:54;9.23;;;6.00;;
60344;SDS011;46188;52.324;8.032;2023-07-20T03:06:19;6.07;;;5.47;;
60344;SDS011;46188;52.324;8.032;2023-07-20T03:08:45;6.60;;;5.38;;
60344;SDS011;46188;52.324;8.032;2023-07-20T03:11:12;6.05;;;5.45;;
60344;SDS011;46188;52.324;8.032;2023-07-20T03:13:39;7.72;;;5.90;;
60344;SDS011;46188;52.324;8.032;2023-07-20T03:16:04;8.27;;;5.43;;
60344;SDS011;46188;52.324;8.032;2023-07-20T03:18:29;7.05;;;6.07;;
60344;SDS011;46188;52.324;8.032;2023-07-20T03:20:55;7.68;;;6.22;;
60344;SDS011;46188;52.324;8.032;2023-07-20T03:23:20;8.57;;;5.80;;
60344;SDS011;46188;52.324;8.032;2023-07-20T03:25:45;7.18;;;6.05;;
60344;SDS011;46188;52.324;8.032;2023-07-20T03:28:10;8.15;;;7.03;;
60344;SDS011;46188;52.324;8.032;2023-07-20T03:30:36;9.20;;;7.22;;
60344;SDS011;46188;52.324;8.032;2023-07-20T03:33:01;7.63;;;6.32;;
60344;SDS011;46188;52.324;8.032;2023-07-20T03:35:28;8.02;;;6.97;;
60344;SDS011;46188;52.324;8.032;2023-07-20T03:37:53;10.60;;;7.10;;
60344;SDS011;46188;52.324;8.032;2023-07-20T03:40:18;8.25;;;6.57;;
60344;SDS011;46188;52.324;8.032;2023-07-20T03:42:43;6.30;;;5.57;;
60344;SDS011;46188;52.324;8.032;2023-07-20T03:45:09;6.63;;;5.93;;
60344;SDS011;46188;52.324;8.032;2023-07-20T03:47:34;7.07;;;5.90;;
60344;SDS011;46188;52.324;8.032;2023-07-20T03:49:59;7.03;;;5.07;;
60344;SDS011;46188;52.324;8.032;2023-07-20T03:52:25;6.53;;;5.38;;
60344;SDS011;46188;52.324;8.032;2023-07-20T03:54:50;8.15;;;5.50;;
60344;SDS011;46188;52.324;8.032;2023-07-20T03:57:16;8.05;;;5.85;;
60344;SDS011;46188;52.324;8.032;2023-07-20T03:59:44;6.85;;;5.55;;
60344;SDS011;46188;52.324;8.032;2023-07-20T04:02:10;6.22;;;5.38;;
60344;SDS011;46188;52.324;8.032;2023-07-20T04:04:35;7.00;;;5.35;;
60344;SDS011;46188;52.324;8.032;2023-07-20T04:07:00;6.55;;;5.63;;
60344;SDS011;46188;52.324;8.032;2023-07-20T04:09:26;7.50;;;4.70;;
60344;SDS011;46188;52.324;8.032;2023-07-20T04:11:51;7.53;;;5.35;;
60344;SDS011;46188;52.324;8.032;2023-07-20T04:14:16;7.00;;;5.00;;
60344;SDS011;46188;52.324;8.032;2023-07-20T04:16:41;8.20;;;5.00;;
60344;SDS011;46188;52.324;8.032;2023-07-20T04:19:07;5.22;;;4.53;;
60344;SDS011;46188;52.324;8.032;2023-07-20T04:21:39;5.25;;;4.20;;
60344;SDS011;46188;52.324;8.032;2023-07-20T04:24:05;8.65;;;4.30;;
60344;SDS011;46188;52.324;8.032;2023-07-20T04:26:31;6.05;;;4.20;;
60344;SDS011;46188;52.324;8.032;2023-07-20T04:28:56;8.23;;;4.90;;
60344;SDS011;46188;52.324;8.032;2023-07-20T04:31:21;5.93;;;4.07;;
60344;SDS011;46188;52.324;8.032;2023-07-20T04:33:46;5.13;;;4.25;;
60344;SDS011;46188;52.324;8.032;2023-07-20T04:36:12;9.00;;;4.38;;
60344;SDS011;46188;52.324;8.032;2023-07-20T04:38:39;5.03;;;4.10;;
60344;SDS011;46188;52.324;8.032;2023-07-20T04:41:04;4.53;;;3.60;;
60344;SDS011;46188;52.324;8.032;2023-07-20T04:43:30;8.10;;;5.03;;
60344;SDS011;46188;52.324;8.032;2023-07-20T04:45:55;6.03;;;3.50;;
60344;SDS011;46188;52.324;8.032;2023-07-20T04:48:21;6.03;;;4.07;;
60344;SDS011;46188;52.324;8.032;2023-07-20T04:50:46;6.07;;;4.72;;
60344;SDS011;46188;52.324;8.032;2023-07-20T04:53:12;8.90;;;4.75;;
60344;SDS011;46188;52.324;8.032;2023-07-20T04:55:38;7.70;;;4.78;;
60344;SDS011;46188;52.324;8.032;2023-07-20T04:58:04;4.97;;;4.30;;
60344;SDS011;46188;52.324;8.032;2023-07-20T05:00:31;5.93;;;4.82;;
60344;SDS011;46188;52.324;8.032;2023-07-20T05:02:57;5.82;;;4.78;;
60344;SDS011;46188;52.324;8.032;2023-07-20T05:05:23;7.32;;;4.07;;
60344;SDS011;46188;52.324;8.032;2023-07-20T05:07:48;6.03;;;4.00;;
60344;SDS011;46188;52.324;8.032;2023-07-20T05:10:13;7.07;;;4.55;;
60344;SDS011;46188;52.324;8.032;2023-07-20T05:12:39;8.23;;;5.28;;
60344;SDS011;46188;52.324;8.032;2023-07-20T05:15:04;9.20;;;5.35;;
60344;SDS011;46188;52.324;8.032;2023-07-20T05:17:29;5.40;;;4.35;;
60344;SDS011;46188;52.324;8.032;2023-07-20T05:19:55;6.18;;;4.40;;
60344;SDS011;46188;52.324;8.032;2023-07-20T05:22:20;5.18;;;3.97;;
60344;SDS011;46188;52.324;8.032;2023-07-20T05:24:45;7.22;;;4.68;;
60344;SDS011;46188;52.324;8.032;2023-07-20T05:27:11;5.75;;;4.53;;
60344;SDS011;46188;52.324;8.032;2023-07-20T05:29:37;6.53;;;4.88;;
60344;SDS011;46188;52.324;8.032;2023-07-20T05:32:02;6.78;;;4.43;;
60344;SDS011;46188;52.324;8.032;2023-07-20T05:34:28;5.50;;;4.13;;
60344;SDS011;46188;52.324;8.032;2023-07-20T05:36:53;6.35;;;4.68;;
60344;SDS011;46188;52.324;8.032;2023-07-20T05:39:19;5.95;;;4.55;;
60344;SDS011;46188;52.324;8.032;2023-07-20T05:41:44;5.60;;;4.68;;
60344;SDS011;46188;52.324;8.032;2023-07-20T05:44:10;7.38;;;4.78;;
60344;SDS011;46188;52.324;8.032;2023-07-20T05:46:35;6.95;;;4.53;;
60344;SDS011;46188;52.324;8.032;2023-07-20T05:49:00;5.25;;;4.53;;
60344;SDS011;46188;52.324;8.032;2023-07-20T05:51:26;5.63;;;4.28;;
60344;SDS011;46188;52.324;8.032;2023-07-20T05:53:52;7.65;;;5.13;;
60344;SDS011;46188;52.324;8.032;2023-07-20T05:56:17;6.18;;;5.15;;
60344;SDS011;46188;52.324;8.032;2023-07-20T05:58:42;6.85;;;5.20;;
60344;SDS011;46188;52.324;8.032;2023-07-20T06:01:07;5.35;;;4.40;;
60344;SDS011;46188;52.324;8.032;2023-07-20T06:03:33;6.18;;;4.93;;
60344;SDS011;46188;52.324;8.032;2023-07-20T06:05:59;5.57;;;4.80;;
60344;SDS011;46188;52.324;8.032;2023-07-20T06:08:26;5.70;;;4.15;;
60344;SDS011;46188;52.324;8.032;2023-07-20T06:10:51;4.82;;;3.97;;
60344;SDS011;46188;52.324;8.032;2023-07-20T06:13:17;5.32;;;4.22;;
60344;SDS011;46188;52.324;8.032;2023-07-20T06:15:42;6.00;;;4.45;;
60344;SDS011;46188;52.324;8.032;2023-07-20T06:18:08;7.20;;;4.88;;
60344;SDS011;46188;52.324;8.032;2023-07-20T06:20:33;8.13;;;5.68;;
60344;SDS011;46188;52.324;8.032;2023-07-20T06:22:59;7.50;;;4.95;;
60344;SDS011;46188;52.324;8.032;2023-07-20T06:25:24;4.18;;;3.78;;
60344;SDS011;46188;52.324;8.032;2023-07-20T06:27:49;4.93;;;4.00;;
60344;SDS011;46188;52.324;8.032;2023-07-20T06:30:16;8.30;;;4.18;;
60344;SDS011;46188;52.324;8.032;2023-07-20T06:32:41;5.05;;;4.22;;
60344;SDS011;46188;52.324;8.032;2023-07-20T06:35:07;5.15;;;4.50;;
60344;SDS011;46188;52.324;8.032;2023-07-20T06:37:33;7.28;;;4.65;;
60344;SDS011;46188;52.324;8.032;2023-07-20T06:39:58;5.72;;;4.88;;
60344;SDS011;46188;52.324;8.032;2023-07-20T06:42:24;4.30;;;3.60;;
60344;SDS011;46188;52.324;8.032;2023-07-20T06:44:49;4.97;;;3.58;;
60344;SDS011;46188;52.324;8.032;2023-07-20T06:47:14;5.88;;;4.15;;
60344;SDS011;46188;52.324;8.032;2023-07-20T06:49:39;4.32;;;3.85;;
60344;SDS011;46188;52.324;8.032;2023-07-20T06:52:05;5.47;;;4.57;;
60344;SDS011;46188;52.324;8.032;2023-07-20T06:54:31;4.47;;;4.07;;
60344;SDS011;46188;52.324;8.032;2023-07-20T06:56:56;5.47;;;4.45;;
60344;SDS011;46188;52.324;8.032;2023-07-20T06:59:21;5.65;;;3.75;;
60344;SDS011;46188;52.324;8.032;2023-07-20T07:01:46;5.65;;;3.75;;
60344;SDS011;46188;52.324;8.032;2023-07-20T07:04:12;4.85;;;3.47;;
60344;SDS011;46188;52.324;8.032;2023-07-20T07:06:37;5.35;;;4.25;;
60344;SDS011;46188;52.324;8.032;2023-07-20T07:09:02;4.45;;;3.97;;
60344;SDS011;46188;52.324;8.032;2023-07-20T07:11:28;4.03;;;3.55;;
60344;SDS011;46188;52.324;8.032;2023-07-20T07:13:54;7.93;;;3.92;;
60344;SDS011;46188;52.324;8.032;2023-07-20T07:16:19;8.13;;;4.32;;
60344;SDS011;46188;52.324;8.032;2023-07-20T07:18:45;5.28;;;4.05;;
60344;SDS011;46188;52.324;8.032;2023-07-20T07:21:11;4.95;;;4.15;;
60344;SDS011;46188;52.324;8.032;2023-07-20T07:23:37;4.95;;;4.10;;
60344;SDS011;46188;52.324;8.032;2023-07-20T07:26:03;6.03;;;3.88;;
60344;SDS011;46188;52.324;8.032;2023-07-20T07:28:28;5.85;;;4.53;;
60344;SDS011;46188;52.324;8.032;2023-07-20T07:30:54;7.55;;;4.40;;
60344;SDS011;46188;52.324;8.032;2023-07-20T07:33:20;6.00;;;3.92;;
60344;SDS011;46188;52.324;8.032;2023-07-20T07:35:45;5.10;;;4.03;;
60344;SDS011;46188;52.324;8.032;2023-07-20T07:38:10;3.55;;;2.28;;
60344;SDS011;46188;52.324;8.032;2023-07-20T07:40:36;3.47;;;2.75;;
60344;SDS011;46188;52.324;8.032;2023-07-20T07:43:01;2.95;;;2.38;;
60344;SDS011;46188;52.324;8.032;2023-07-20T07:45:26;2.83;;;2.28;;
60344;SDS011;46188;52.324;8.032;2023-07-20T07:47:51;3.70;;;2.15;;
60344;SDS011;46188;52.324;8.032;2023-07-20T07:50:17;2.95;;;2.65;;
60344;SDS011;46188;52.324;8.032;2023-07-20T07:52:42;4.35;;;2.10;;
60344;SDS011;46188;52.324;8.032;2023-07-20T07:55:07;4.75;;;1.95;;
60344;SDS011;46188;52.324;8.032;2023-07-20T07:57:32;3.45;;;1.80;;
60344;SDS011;46188;52.324;8.032;2023-07-20T07:59:58;1.67;;;1.35;;
60344;SDS011;46188;52.324;8.032;2023-07-20T08:02:23;4.90;;;1.92;;
60344;SDS011;46188;52.324;8.032;2023-07-20T08:04:48;6.97;;;2.08;;
60344;SDS011;46188;52.324;8.032;2023-07-20T08:07:16;5.20;;;1.88;;
60344;SDS011;46188;52.324;8.032;2023-07-20T08:09:41;3.15;;;1.52;;
60344;SDS011;46188;52.324;8.032;2023-07-20T08:12:06;1.77;;;1.38;;
60344;SDS011;46188;52.324;8.032;2023-07-20T08:14:32;1.65;;;1.33;;
60344;SDS011;46188;52.324;8.032;2023-07-20T08:16:57;3.97;;;1.58;;
60344;SDS011;46188;52.324;8.032;2023-07-20T08:19:23;2.88;;;1.88;;
60344;SDS011;46188;52.324;8.032;2023-07-20T08:21:48;2.70;;;1.70;;
60344;SDS011;46188;52.324;8.032;2023-07-20T08:24:14;4.18;;;1.90;;
60344;SDS011;46188;52.324;8.032;2023-07-20T08:26:39;3.17;;;1.60;;
60344;SDS011;46188;52.324;8.032;2023-07-20T08:29:04;1.95;;;1.42;;
60344;SDS011;46188;52.324;8.032;2023-07-20T08:31:29;3.67;;;1.42;;
60344;SDS011;46188;52.324;8.032;2023-07-20T08:33:55;3.45;;;1.40;;
60344;SDS011;46188;52.324;8.032;2023-07-20T08:36:21;2.90;;;1.48;;
60344;SDS011;46188;52.324;8.032;2023-07-20T08:38:47;2.30;;;1.40;;
60344;SDS011;46188;52.324;8.032;2023-07-20T08:41:13;3.28;;;1.60;;
60344;SDS011;46188;52.324;8.032;2023-07-20T08:43:39;2.25;;;1.60;;
60344;SDS011;46188;52.324;8.032;2023-07-20T08:46:08;3.38;;;1.85;;
60344;SDS011;46188;52.324;8.032;2023-07-20T08:48:36;2.50;;;1.60;;
60344;SDS011;46188;52.324;8.032;2023-07-20T08:51:01;1.88;;;1.15;;
60344;SDS011;46188;52.324;8.032;2023-07-20T08:53:29;1.58;;;1.08;;
60344;SDS011;46188;52.324;8.032;2023-07-20T08:55:56;2.20;;;1.17;;
60344;SDS011;46188;52.324;8.032;2023-07-20T08:58:23;2.78;;;1.98;;
60344;SDS011;46188;52.324;8.032;2023-07-20T09:00:51;2.17;;;1.20;;
60344;SDS011;46188;52.324;8.032;2023-07-20T09:03:18;3.92;;;1.30;;
60344;SDS011;46188;52.324;8.032;2023-07-20T09:05:44;3.08;;;1.42;;
60344;SDS011;46188;52.324;8.032;2023-07-20T09:08:10;1.23;;;0.88;;
60344;SDS011;46188;52.324;8.032;2023-07-20T09:10:35;1.67;;;0.90;;
60344;SDS011;46188;52.324;8.032;2023-07-20T09:13:01;3.15;;;0.90;;
60344;SDS011;46188;52.324;8.032;2023-07-20T09:15:26;1.42;;;0.80;;
60344;SDS011;46188;52.324;8.032;2023-07-20T09:17:51;5.45;;;1.02;;
60344;SDS011;46188;52.324;8.032;2023-07-20T09:20:19;1.85;;;1.10;;
60344;SDS011;46188;52.324;8.032;2023-07-20T09:22:45;2.08;;;1.20;;
60344;SDS011;46188;52.324;8.032;2023-07-20T09:25:11;1.90;;;0.95;;
60344;SDS011;46188;52.324;8.032;2023-07-20T09:27:42;1.90;;;0.90;;
60344;SDS011;46188;52.324;8.032;2023-07-20T09:30:09;2.05;;;0.93;;
60344;SDS011;46188;52.324;8.032;2023-07-20T09:32:38;1.00;;;0.60;;
60344;SDS011;46188;52.324;8.032;2023-07-20T09:35:14;1.50;;;0.80;;
60344;SDS011;46188;52.324;8.032;2023-07-20T09:37:41;2.03;;;0.80;;
60344;SDS011;46188;52.324;8.032;2023-07-20T09:40:14;3.50;;;0.90;;
60344;SDS011;46188;52.324;8.032;2023-07-20T09:42:40;2.45;;;1.30;;
60344;SDS011;46188;52.324;8.032;2023-07-20T09:45:06;1.45;;;0.80;;
60344;SDS011;46188;52.324;8.032;2023-07-20T09:47:33;1.67;;;0.63;;
60344;SDS011;46188;52.324;8.032;2023-07-20T09:50:01;3.10;;;0.90;;
60344;SDS011;46188;52.324;8.032;2023-07-20T09:52:28;1.38;;;0.70;;
60344;SDS011;46188;52.324;8.032;2023-07-20T09:54:54;2.13;;;0.70;;
60344;SDS011;46188;52.324;8.032;2023-07-20T09:57:20;1.63;;;0.82;;
60344;SDS011;46188;52.324;8.032;2023-07-20T09:59:46;2.00;;;0.88;;
60344;SDS011;46188;52.324;8.032;2023-07-20T10:02:19;1.15;;;0.70;;
60344;SDS011;46188;52.324;8.032;2023-07-20T10:04:49;4.32;;;0.77;;
60344;SDS011;46188;52.324;8.032;2023-07-20T10:07:18;1.30;;;0.73;;
60344;SDS011;46188;52.324;8.032;2023-07-20T10:09:48;5.60;;;0.93;;
60344;SDS011;46188;52.324;8.032;2023-07-20T10:12:16;2.30;;;0.82;;
60344;SDS011;46188;52.324;8.032;2023-07-20T10:14:52;1.50;;;1.00;;
60344;SDS011;46188;52.324;8.032;2023-07-20T10:17:25;2.33;;;1.17;;
60344;SDS011;46188;52.324;8.032;2023-07-20T10:19:51;2.05;;;1.27;;
60344;SDS011;46188;52.324;8.032;2023-07-20T10:22:25;1.67;;;1.40;;
60344;SDS011;46188;52.324;8.032;2023-07-20T10:24:51;2.75;;;1.40;;
60344;SDS011;46188;52.324;8.032;2023-07-20T10:27:20;2.65;;;1.80;;
60344;SDS011;46188;52.324;8.032;2023-07-20T10:29:46;2.35;;;1.63;;
60344;SDS011;46188;52.324;8.032;2023-07-20T10:32:12;2.05;;;1.52;;
60344;SDS011;46188;52.324;8.032;2023-07-20T10:34:38;2.38;;;2.03;;
60344;SDS011;46188;52.324;8.032;2023-07-20T10:37:04;2.85;;;2.33;;
60344;SDS011;46188;52.324;8.032;2023-07-20T10:39:33;3.08;;;2.50;;
60344;SDS011;46188;52.324;8.032;2023-07-20T10:42:09;2.20;;;2.00;;
60344;SDS011;46188;52.324;8.032;2023-07-20T10:44:36;4.00;;;2.40;;
60344;SDS011;46188;52.324;8.032;2023-07-20T10:47:03;2.58;;;2.38;;
60344;SDS011;46188;52.324;8.032;2023-07-20T10:49:33;3.13;;;2.53;;
60344;SDS011;46188;52.324;8.032;2023-07-20T10:52:00;2.63;;;2.35;;
60344;SDS011;46188;52.324;8.032;2023-07-20T10:56:55;2.35;;;1.95;;
60344;SDS011;46188;52.324;8.032;2023-07-20T11:01:52;2.65;;;2.10;;
60344;SDS011;46188;52.324;8.032;2023-07-20T11:04:21;3.65;;;1.90;;
60344;SDS011;46188;52.324;8.032;2023-07-20T11:07:05;2.50;;;1.73;;
60344;SDS011;46188;52.324;8.032;2023-07-20T11:09:37;2.28;;;1.60;;
60344;SDS011;46188;52.324;8.032;2023-07-20T11:12:10;1.98;;;1.40;;
60344;SDS011;46188;52.324;8.032;2023-07-20T11:14:53;2.20;;;1.70;;
60344;SDS011;46188;52.324;8.032;2023-07-20T11:17:31;2.38;;;1.75;;
60344;SDS011;46188;52.324;8.032;2023-07-20T11:20:00;2.05;;;1.50;;
60344;SDS011;46188;52.324;8.032;2023-07-20T11:22:27;1.88;;;1.45;;
60344;SDS011;46188;52.324;8.032;2023-07-20T11:24:56;1.90;;;1.20;;
60344;SDS011;46188;52.324;8.032;2023-07-20T11:27:21;2.75;;;1.40;;
60344;SDS011;46188;52.324;8.032;2023-07-20T11:29:47;2.70;;;1.23;;
60344;SDS011;46188;52.324;8.032;2023-07-20T11:32:19;1.63;;;1.10;;
60344;SDS011;46188;52.324;8.032;2023-07-20T11:34:46;1.83;;;0.90;;
60344;SDS011;46188;52.324;8.032;2023-07-20T11:37:12;2.30;;;1.00;;
60344;SDS011;46188;52.324;8.032;2023-07-20T11:39:38;1.75;;;0.80;;
60344;SDS011;46188;52.324;8.032;2023-07-20T11:42:03;1.15;;;0.70;;
60344;SDS011;46188;52.324;8.032;2023-07-20T11:44:30;1.10;;;0.65;;
60344;SDS011;46188;52.324;8.032;2023-07-20T11:47:06;3.22;;;0.80;;
60344;SDS011;46188;52.324;8.032;2023-07-20T11:49:37;1.23;;;0.80;;
60344;SDS011;46188;52.324;8.032;2023-07-20T11:52:06;1.42;;;0.80;;
60344;SDS011;46188;52.324;8.032;2023-07-20T11:54:33;1.10;;;0.73;;
60344;SDS011;46188;52.324;8.032;2023-07-20T11:57:00;1.08;;;0.68;;
60344;SDS011;46188;52.324;8.032;2023-07-20T11:59:26;2.63;;;0.80;;
60344;SDS011;46188;52.324;8.032;2023-07-20T12:01:52;2.25;;;0.77;;
60344;SDS011;46188;52.324;8.032;2023-07-20T12:04:17;1.23;;;0.60;;
60344;SDS011;46188;52.324;8.032;2023-07-20T12:06:44;1.10;;;0.50;;
60344;SDS011;46188;52.324;8.032;2023-07-20T12:09:13;1.10;;;0.60;;
60344;SDS011;46188;52.324;8.032;2023-07-20T12:11:42;1.13;;;0.63;;
60344;SDS011;46188;52.324;8.032;2023-07-20T12:14:08;1.20;;;0.60;;
60344;SDS011;46188;52.324;8.032;2023-07-20T12:16:34;1.73;;;0.90;;
60344;SDS011;46188;52.324;8.032;2023-07-20T12:19:11;1.33;;;0.60;;
60344;SDS011;46188;52.324;8.032;2023-07-20T12:21:38;1.00;;;0.60;;
60344;SDS011;46188;52.324;8.032;2023-07-20T12:24:06;2.42;;;0.70;;
60344;SDS011;46188;52.324;8.032;2023-07-20T12:26:34;1.50;;;0.60;;
60344;SDS011;46188;52.324;8.032;2023-07-20T12:29:00;1.58;;;0.60;;
60344;SDS011;46188;52.324;8.032;2023-07-20T12:31:26;2.75;;;0.52;;
60344;SDS011;46188;52.324;8.032;2023-07-20T12:33:52;1.23;;;0.63;;
60344;SDS011;46188;52.324;8.032;2023-07-20T12:36:20;1.08;;;0.50;;
60344;SDS011;46188;52.324;8.032;2023-07-20T12:38:45;0.65;;;0.50;;
60344;SDS011;46188;52.324;8.032;2023-07-20T12:41:11;3.17;;;0.60;;
60344;SDS011;46188;52.324;8.032;2023-07-20T12:43:38;1.10;;;0.68;;
60344;SDS011;46188;52.324;8.032;2023-07-20T12:46:05;1.13;;;0.57;;
60344;SDS011;46188;52.324;8.032;2023-07-20T12:48:30;2.80;;;0.70;;
60344;SDS011;46188;52.324;8.032;2023-07-20T12:50:55;2.42;;;0.60;;
60344;SDS011;46188;52.324;8.032;2023-07-20T12:53:21;1.13;;;0.60;;
60344;SDS011;46188;52.324;8.032;2023-07-20T12:55:47;2.55;;;0.70;;
60344;SDS011;46188;52.324;8.032;2023-07-20T12:58:12;2.13;;;0.70;;
60344;SDS011;46188;52.324;8.032;2023-07-20T13:00:38;2.15;;;0.60;;
60344;SDS011;46188;52.324;8.032;2023-07-20T13:03:03;1.05;;;0.63;;
60344;SDS011;46188;52.324;8.032;2023-07-20T13:05:32;2.72;;;0.80;;
60344;SDS011;46188;52.324;8.032;2023-07-20T13:07:57;2.25;;;0.63;;
60344;SDS011;46188;52.324;8.032;2023-07-20T13:10:23;1.92;;;0.70;;
60344;SDS011;46188;52.324;8.032;2023-07-20T13:12:49;1.30;;;0.70;;
60344;SDS011;46188;52.324;8.032;2023-07-20T13:15:14;0.90;;;0.52;;
60344;SDS011;46188;52.324;8.032;2023-07-20T13:17:40;1.85;;;0.90;;
60344;SDS011;46188;52.324;8.032;2023-07-20T13:20:05;1.10;;;0.60;;
60344;SDS011;46188;52.324;8.032;2023-07-20T13:22:33;1.50;;;0.60;;
60344;SDS011;46188;52.324;8.032;2023-07-20T13:24:59;1.70;;;0.80;;
60344;SDS011;46188;52.324;8.032;2023-07-20T13:27:24;1.13;;;0.75;;
60344;SDS011;46188;52.324;8.032;2023-07-20T13:29:51;2.47;;;0.80;;
60344;SDS011;46188;52.324;8.032;2023-07-20T13:32:17;1.30;;;0.80;;
60344;SDS011;46188;52.324;8.032;2023-07-20T13:34:43;1.40;;;0.70;;
60344;SDS011;46188;52.324;8.032;2023-07-20T13:37:09;1.65;;;0.70;;
60344;SDS011;46188;52.324;8.032;2023-07-20T13:39:35;2.83;;;0.80;;
60344;SDS011;46188;52.324;8.032;2023-07-20T13:42:00;1.35;;;0.70;;
60344;SDS011;46188;52.324;8.032;2023-07-20T13:44:30;1.48;;;0.60;;
60344;SDS011;46188;52.324;8.032;2023-07-20T13:46:56;3.95;;;0.90;;
60344;SDS011;46188;52.324;8.032;2023-07-20T13:49:21;1.02;;;0.70;;
60344;SDS011;46188;52.324;8.032;2023-07-20T13:51:47;0.75;;;0.57;;
60344;SDS011;46188;52.324;8.032;2023-07-20T13:54:13;1.33;;;0.50;;
60344;SDS011;46188;52.324;8.032;2023-07-20T13:56:38;1.20;;;0.70;;
60344;SDS011;46188;52.324;8.032;2023-07-20T13:59:03;0.70;;;0.50;;
60344;SDS011;46188;52.324;8.032;2023-07-20T14:01:28;0.60;;;0.50;;
60344;SDS011;46188;52.324;8.032;2023-07-20T14:03:55;1.05;;;0.60;;
60344;SDS011;46188;52.324;8.032;2023-07-20T14:06:21;1.92;;;1.13;;
60344;SDS011;46188;52.324;8.032;2023-07-20T14:08:46;0.90;;;0.60;;
60344;SDS011;46188;52.324;8.032;2023-07-20T14:11:13;0.88;;;0.55;;
60344;SDS011;46188;52.324;8.032;2023-07-20T14:13:39;4.70;;;1.33;;
60344;SDS011;46188;52.324;8.032;2023-07-20T14:16:04;13.43;;;4.53;;
60344;SDS011;46188;52.324;8.032;2023-07-20T14:18:30;6.90;;;2.00;;
60344;SDS011;46188;52.324;8.032;2023-07-20T14:20:55;7.18;;;1.55;;
60344;SDS011;46188;52.324;8.032;2023-07-20T14:23:20;6.33;;;1.60;;
60344;SDS011;46188;52.324;8.032;2023-07-20T14:25:46;3.30;;;0.90;;
60344;SDS011;46188;52.324;8.032;2023-07-20T14:28:11;1.73;;;0.70;;
60344;SDS011;46188;52.324;8.032;2023-07-20T14:30:37;1.20;;;0.52;;
60344;SDS011;46188;52.324;8.032;2023-07-20T14:33:02;0.53;;;0.43;;
60344;SDS011;46188;52.324;8.032;2023-07-20T14:35:28;0.90;;;0.60;;
60344;SDS011;46188;52.324;8.032;2023-07-20T14:37:53;0.68;;;0.50;;
60344;SDS011;46188;52.324;8.032;2023-07-20T14:40:18;1.35;;;0.50;;
60344;SDS011;46188;52.324;8.032;2023-07-20T14:42:44;0.80;;;0.50;;
60344;SDS011;46188;52.324;8.032;2023-07-20T14:45:09;2.30;;;0.70;;
60344;SDS011;46188;52.324;8.032;2023-07-20T14:47:34;2.17;;;0.57;;
60344;SDS011;46188;52.324;8.032;2023-07-20T14:50:03;0.65;;;0.50;;